Olive Branch, Mississippi
Current Conditions -  °F | °C
As of 5:50 PM on Wednesday 22 Oct 2014 (Local Time) from KOLV Reporting Station
Clear Clear  
Wind Chill: 61°   Ceiling: Unl
Heat Index: 61°   Visibility: 10mi
Dew Point: 45°   Wind: 6mph
Humidity: 55%   Direction: 40°NE
Pressure: 30.17"   Gusts: NA
Location:  34.96°N, 89.83°W
Report Text: KOLV 222250Z 04005KT 10SM SKC 16/07 A3017
Loading
Personal Weather Stations






























Interactive Weather Map
Tropical Storm Tracking
New forecast layout! Learn more

10-Day Weather Forecast

Advertisements
Track Severe Weather on mobile